首页
METAR-TAF:

METAR-TAF

机场 :

蘇聖瑪麗, 密歇根州, 美国

纬度: 46-15N, 经度: 084-28W, 海拔: 244米

当前天气观测

该预报发布于12分钟前的14:56 UTC
风速11节,风向西转西南
温度 17°C
湿度 52%
气压 1021 hPa
能見度: 16.1公里
天空无云

METAR: KCIU 011456Z AUTO 25011KT 10SM CLR 17/07 A3015 RMK AO2 SLP209 T01720072 58008

时间: 11:08 (15:08 UTC)


TAF: 丢失

超过4000个机场的气象观测和天气预报(METAR&TAF报告)。

可查询的气象台以黄色和红色小点在地图上表示。

将鼠标移到小点上方,可查看气象台名称。

然后点击查看天气观测和预报。

如需切换地图:点击带黑十字的绿色按钮放大地图;点击带横线的绿色按钮缩小地图;或者点击绿色箭头查看邻近地区的地图。


METAR-TAF: